Mogadore, Ohio
Current Conditions -  °F | °C
As of 2:54 PM on Friday 28 Nov 2014 (Local Time) from KAKR Reporting Station
Overcast Overcast  
Wind Chill: 18°   Ceiling: 2800
Heat Index: 27°   Visibility: 10mi
Dew Point: 16°   Wind: 9mph
Humidity: 63%   Direction: 210°SSW
Pressure: 30.22"   Gusts: NA
Location:  41.05°N, 81.4°W
Report Text: KAKR 281954Z AUTO 21008KT 10SM OVC028 M03/M09 A3022 RMK AO2 SLP247 T10281089 $
Loading
Personal Weather Stations






























Interactive Weather Map New forecast layout! Learn more

10-Day Weather Forecast

Advertisements
Track Severe Weather on mobile